Bardonia, New York
Current Conditions -  °F | °C
As of 2:56 AM on Monday 26 Jan 2015 (Local Time) from KHPN Reporting Station
Overcast Overcast  
Wind Chill: -10°   Ceiling: 7000
Heat Index: -6°   Visibility: 10mi
Dew Point: -16°   Wind: 6mph
Humidity: 46%   Direction: 40°NE
Pressure: 30.01"   Gusts: NA
Location:  41.0984°N, 74.0095°W
Report Text: KHPN 260756Z 04005KT 10SM OVC070 M06/M16 A3001 RMK AO2 SLP171 T10611161 $
Loading
Personal Weather Stations






























Interactive Weather Map New forecast layout! Learn more

10-Day Weather Forecast

Advertisements
Track Severe Weather on mobile